createdAt,value
2023-01-28T00:01:05.472Z,2.35
2023-01-28T00:03:32.493Z,2.34
2023-01-28T00:06:13.836Z,2.35
2023-01-28T00:08:42.031Z,2.34
2023-01-28T00:11:12.654Z,2.37
2023-01-28T00:13:40.667Z,2.36
2023-01-28T00:16:09.927Z,2.35
2023-01-28T00:18:37.692Z,2.33
2023-01-28T00:21:13.656Z,2.34
2023-01-28T00:23:43.369Z,2.33
2023-01-28T00:26:15.370Z,2.34
2023-01-28T00:28:43.319Z,2.35
2023-01-28T00:31:22.833Z,2.31
2023-01-28T00:33:51.844Z,2.34
2023-01-28T00:36:21.132Z,2.36
2023-01-28T00:38:59.575Z,2.32
2023-01-28T00:41:29.633Z,2.31
2023-01-28T00:43:56.979Z,2.32
2023-01-28T00:46:26.625Z,2.30
2023-01-28T00:48:53.818Z,2.32
2023-01-28T00:51:21.715Z,2.31
2023-01-28T00:53:48.900Z,2.32
2023-01-28T00:56:17.993Z,2.29
2023-01-28T00:58:45.538Z,2.32
2023-01-28T01:01:17.057Z,2.30
2023-01-28T01:03:44.770Z,2.29
2023-01-28T01:06:14.248Z,2.28
2023-01-28T01:08:42.911Z,2.26
2023-01-28T01:11:12.107Z,2.24
2023-01-28T01:13:39.251Z,2.22
2023-01-28T01:16:16.704Z,2.21
2023-01-28T01:18:44.105Z,2.17
2023-01-28T01:21:18.742Z,2.18
2023-01-28T01:23:47.201Z,2.16
2023-01-28T01:26:14.975Z,2.16
2023-01-28T01:28:42.568Z,2.14
2023-01-28T01:31:17.713Z,2.13
2023-01-28T01:33:47.534Z,2.14
2023-01-28T01:36:17.315Z,2.13
2023-01-28T01:38:44.360Z,2.10
2023-01-28T01:41:30.074Z,2.10
2023-01-28T01:44:02.530Z,2.12
2023-01-28T01:46:43.689Z,2.11
2023-01-28T01:49:27.671Z,2.11
2023-01-28T01:52:02.652Z,2.10
2023-01-28T01:54:32.664Z,2.07
2023-01-28T01:57:01.561Z,2.07
2023-01-28T01:59:33.096Z,2.07
2023-01-28T02:02:08.202Z,2.07
2023-01-28T02:04:44.786Z,2.05
2023-01-28T02:07:16.235Z,2.03
2023-01-28T02:09:43.355Z,2.05
2023-01-28T02:12:18.776Z,2.03
2023-01-28T02:15:15.181Z,2.05
2023-01-28T02:17:42.812Z,2.04
2023-01-28T02:20:13.283Z,2.04
2023-01-28T02:22:55.458Z,2.04
2023-01-28T02:25:41.516Z,2.02
2023-01-28T02:28:36.039Z,2.01
2023-01-28T02:31:25.402Z,1.99
2023-01-28T02:34:25.870Z,1.96
2023-01-28T02:37:10.039Z,1.95
2023-01-28T02:39:46.089Z,1.95
2023-01-28T02:42:20.229Z,1.93
2023-01-28T02:44:47.199Z,1.92
2023-01-28T02:47:34.620Z,1.93
2023-01-28T02:50:06.016Z,1.92
2023-01-28T02:53:23.426Z,1.90
2023-01-28T02:56:21.239Z,1.89
2023-01-28T02:59:01.404Z,1.88
2023-01-28T03:01:44.836Z,1.88
2023-01-28T03:04:27.247Z,1.88
2023-01-28T03:07:04.227Z,1.88
2023-01-28T03:09:32.434Z,1.85
2023-01-28T03:12:30.008Z,1.85
2023-01-28T03:15:39.893Z,1.85
2023-01-28T03:19:06.723Z,1.87
2023-01-28T03:21:59.934Z,1.87
2023-01-28T03:24:52.204Z,1.87
2023-01-28T03:27:54.821Z,1.86
2023-01-28T03:30:51.673Z,1.85
2023-01-28T03:33:37.660Z,1.84
2023-01-28T03:36:25.534Z,1.82
2023-01-28T03:38:52.915Z,1.83
2023-01-28T03:41:26.538Z,1.81
2023-01-28T03:43:53.734Z,1.81
2023-01-28T03:46:20.947Z,1.82
2023-01-28T03:48:47.976Z,1.80
2023-01-28T03:51:15.856Z,1.81
2023-01-28T03:53:42.856Z,1.80
2023-01-28T03:56:09.870Z,1.80
2023-01-28T03:58:57.055Z,1.79
2023-01-28T04:01:24.426Z,1.77
2023-01-28T04:03:51.849Z,1.78
2023-01-28T04:06:18.923Z,1.77
2023-01-28T04:08:49.086Z,1.76
2023-01-28T04:11:16.071Z,1.75
2023-01-28T04:13:43.965Z,1.75
2023-01-28T04:16:12.599Z,1.74
2023-01-28T04:18:39.702Z,1.74
2023-01-28T04:21:06.823Z,1.73
2023-01-28T04:23:33.783Z,1.72
2023-01-28T04:26:00.761Z,1.71
2023-01-28T04:28:27.995Z,1.71
2023-01-28T04:30:54.964Z,1.72
2023-01-28T04:33:22.546Z,1.70
2023-01-28T04:35:49.572Z,1.70
2023-01-28T04:38:16.607Z,1.70
2023-01-28T04:40:43.555Z,1.69
2023-01-28T04:43:10.568Z,1.66
2023-01-28T04:45:37.535Z,1.65
2023-01-28T04:48:04.550Z,1.61
2023-01-28T04:50:31.547Z,1.64
2023-01-28T04:52:58.509Z,1.62
2023-01-28T04:55:25.546Z,1.65
2023-01-28T04:57:52.553Z,1.65
2023-01-28T05:00:19.986Z,1.66
2023-01-28T05:02:46.992Z,1.63
2023-01-28T05:05:14.383Z,1.62
2023-01-28T05:07:41.489Z,1.61
2023-01-28T05:10:09.591Z,1.64
2023-01-28T05:12:36.668Z,1.61
2023-01-28T05:15:04.405Z,1.62
2023-01-28T05:17:31.442Z,1.60
2023-01-28T05:19:58.414Z,1.62
2023-01-28T05:22:25.420Z,1.62
2023-01-28T05:24:52.402Z,1.60
2023-01-28T05:27:19.448Z,1.59
2023-01-28T05:29:46.592Z,1.60
2023-01-28T05:32:13.611Z,1.60
2023-01-28T05:34:40.639Z,1.60
2023-01-28T05:37:07.583Z,1.59
2023-01-28T05:39:34.670Z,1.58
2023-01-28T05:42:01.700Z,1.59
2023-01-28T05:44:28.764Z,1.58
2023-01-28T05:46:55.713Z,1.57
2023-01-28T05:49:22.899Z,1.56
2023-01-28T05:51:49.927Z,1.56
2023-01-28T05:54:16.919Z,1.56
2023-01-28T05:56:44.163Z,1.56
2023-01-28T05:59:12.186Z,1.58
2023-01-28T06:01:39.721Z,1.56
2023-01-28T06:04:06.781Z,1.58
2023-01-28T06:06:33.818Z,1.57
2023-01-28T06:09:00.803Z,1.57
2023-01-28T06:11:27.779Z,1.55
2023-01-28T06:13:54.768Z,1.55
2023-01-28T06:16:21.750Z,1.56
2023-01-28T06:18:48.701Z,1.58
2023-01-28T06:21:15.650Z,1.57
2023-01-28T06:23:42.605Z,1.55
2023-01-28T06:26:09.618Z,1.53
2023-01-28T06:28:36.688Z,1.55
2023-01-28T06:31:03.865Z,1.54
2023-01-28T06:33:31.090Z,1.51
2023-01-28T06:35:58.162Z,1.51
2023-01-28T06:38:25.228Z,1.50
2023-01-28T06:40:55.962Z,1.52
2023-01-28T06:43:28.177Z,1.50
2023-01-28T06:45:55.626Z,1.51
2023-01-28T06:48:23.156Z,1.51
2023-01-28T06:50:50.353Z,1.50
2023-01-28T06:53:18.679Z,1.50
2023-01-28T06:55:46.169Z,1.52
2023-01-28T06:58:14.380Z,1.54
2023-01-28T07:00:41.916Z,1.50
2023-01-28T07:03:09.019Z,1.50
2023-01-28T07:05:36.229Z,1.50
2023-01-28T07:08:03.465Z,1.48
2023-01-28T07:10:30.956Z,1.50
2023-01-28T07:12:58.025Z,1.48
2023-01-28T07:15:25.065Z,1.48
2023-01-28T07:17:52.208Z,1.48
2023-01-28T07:20:19.397Z,1.47
2023-01-28T07:22:46.929Z,1.47
2023-01-28T07:25:15.394Z,1.49
2023-01-28T07:27:53.857Z,1.49
2023-01-28T07:30:22.234Z,1.48
2023-01-28T07:32:54.703Z,1.48
2023-01-28T07:35:22.435Z,1.47
2023-01-28T07:37:59.022Z,1.47
2023-01-28T07:40:27.856Z,1.48
2023-01-28T07:42:56.419Z,1.46
2023-01-28T07:45:25.366Z,1.48
2023-01-28T07:48:02.441Z,1.49
2023-01-28T07:50:31.265Z,1.50
2023-01-28T07:52:58.641Z,1.50
2023-01-28T07:55:26.193Z,1.50
2023-01-28T07:57:56.226Z,1.51
2023-01-28T08:00:25.099Z,1.51
2023-01-28T08:03:04.410Z,1.54
2023-01-28T08:05:45.069Z,1.52
2023-01-28T08:08:12.561Z,1.54
2023-01-28T08:10:40.063Z,1.55
2023-01-28T08:13:08.061Z,1.56
2023-01-28T08:15:35.648Z,1.58
2023-01-28T08:18:04.539Z,1.58
2023-01-28T08:20:31.736Z,1.60
2023-01-28T08:23:17.936Z,1.62
2023-01-28T08:25:46.665Z,1.61
2023-01-28T08:28:16.372Z,1.66
2023-01-28T08:30:44.580Z,1.66
2023-01-28T08:33:15.338Z,1.66
2023-01-28T08:35:42.412Z,1.67
2023-01-28T08:38:11.974Z,1.71
2023-01-28T08:40:39.133Z,1.72
2023-01-28T08:43:06.207Z,1.74
2023-01-28T08:45:33.370Z,1.75
2023-01-28T08:48:04.532Z,1.76
2023-01-28T08:50:38.093Z,1.77
2023-01-28T08:53:12.968Z,1.78
2023-01-28T08:55:40.003Z,1.81
2023-01-28T08:58:12.245Z,1.84
2023-01-28T09:00:40.046Z,1.85
2023-01-28T09:03:08.005Z,1.86
2023-01-28T09:05:37.416Z,1.86
2023-01-28T09:08:08.006Z,1.87
2023-01-28T09:10:37.568Z,1.92
2023-01-28T09:13:14.314Z,1.95
2023-01-28T09:15:42.159Z,1.94
2023-01-28T09:18:09.261Z,1.97
2023-01-28T09:20:38.025Z,1.96
2023-01-28T09:23:05.596Z,1.99
2023-01-28T09:25:32.769Z,2.02
2023-01-28T09:27:59.719Z,2.02
2023-01-28T09:30:27.585Z,2.04
2023-01-28T09:32:56.611Z,2.10
2023-01-28T09:35:24.542Z,2.09
2023-01-28T09:37:52.159Z,2.10
2023-01-28T09:40:24.561Z,2.12
2023-01-28T09:43:07.354Z,2.20
2023-01-28T09:45:42.749Z,2.18
2023-01-28T09:48:19.789Z,2.19
2023-01-28T09:50:51.630Z,2.23
2023-01-28T09:53:37.412Z,2.25
2023-01-28T09:56:11.485Z,2.28
2023-01-28T09:58:38.686Z,2.21
2023-01-28T10:01:36.405Z,2.23
2023-01-28T10:04:55.164Z,2.30
2023-01-28T10:07:57.705Z,2.29
2023-01-28T10:10:34.653Z,2.25
2023-01-28T10:14:01.609Z,2.29
2023-01-28T10:16:51.885Z,2.34
2023-01-28T10:19:30.955Z,2.38
2023-01-28T10:22:11.999Z,2.43
2023-01-28T10:24:46.332Z,2.41
2023-01-28T10:27:24.689Z,2.44
2023-01-28T10:29:53.242Z,2.47
2023-01-28T10:32:36.858Z,2.50
2023-01-28T10:35:06.816Z,2.50
2023-01-28T10:37:38.100Z,2.54
2023-01-28T10:40:06.248Z,2.53
2023-01-28T10:42:38.593Z,2.60
2023-01-28T10:45:30.046Z,2.62
2023-01-28T10:48:15.063Z,2.64
2023-01-28T10:50:57.159Z,2.64
2023-01-28T10:53:46.355Z,2.73
2023-01-28T10:56:24.951Z,2.76
2023-01-28T10:59:05.389Z,2.79
2023-01-28T11:01:49.263Z,2.70
2023-01-28T11:04:23.260Z,2.70
2023-01-28T11:07:21.452Z,2.67
2023-01-28T11:09:51.790Z,2.72
2023-01-28T11:12:26.595Z,2.71
2023-01-28T11:14:55.878Z,2.68
2023-01-28T11:17:26.582Z,2.75
2023-01-28T11:19:55.598Z,2.79
2023-01-28T11:22:36.124Z,2.74
2023-01-28T11:25:28.700Z,2.69
2023-01-28T11:27:56.379Z,2.60
2023-01-28T11:30:36.613Z,2.60
2023-01-28T11:33:13.039Z,2.64
2023-01-28T11:35:40.084Z,2.71
2023-01-28T11:38:24.265Z,2.63
2023-01-28T11:40:53.346Z,2.66
2023-01-28T11:43:26.836Z,2.58
2023-01-28T11:46:05.325Z,2.63
2023-01-28T11:48:56.260Z,2.60
2023-01-28T11:51:43.208Z,2.76
2023-01-28T11:55:20.879Z,2.82
2023-01-28T11:58:37.121Z,2.81
2023-01-28T12:01:25.111Z,2.82
2023-01-28T12:04:42.526Z,2.82
2023-01-28T12:07:33.754Z,2.79
2023-01-28T12:10:12.771Z,2.81
2023-01-28T12:13:17.729Z,2.84
2023-01-28T12:16:34.885Z,2.83
2023-01-28T12:19:46.465Z,2.92
2023-01-28T12:23:00.261Z,2.83
2023-01-28T12:25:50.790Z,2.86
2023-01-28T12:28:30.877Z,2.88
2023-01-28T12:31:25.480Z,2.97
2023-01-28T12:34:36.187Z,2.87
2023-01-28T12:37:40.403Z,2.86
2023-01-28T12:40:26.685Z,2.82
2023-01-28T12:43:10.617Z,2.88
2023-01-28T12:45:55.779Z,2.96
2023-01-28T12:48:40.254Z,2.84
2023-01-28T12:54:12.483Z,2.84
2023-01-28T12:56:51.355Z,2.86
2023-01-28T12:59:40.022Z,2.80
2023-01-28T13:02:13.373Z,2.82
2023-01-28T13:04:54.843Z,2.80
2023-01-28T13:07:34.997Z,2.83
2023-01-28T13:10:25.741Z,2.83
2023-01-28T13:12:54.039Z,2.81
2023-01-28T13:15:22.317Z,2.84
2023-01-28T13:18:05.370Z,2.75
2023-01-28T13:20:53.500Z,2.81
2023-01-28T13:23:45.300Z,2.78
2023-01-28T13:26:24.762Z,2.75
2023-01-28T13:28:57.718Z,2.75
2023-01-28T13:31:25.060Z,2.70
2023-01-28T13:33:54.766Z,2.71
2023-01-28T13:36:30.524Z,2.71
2023-01-28T13:39:21.294Z,2.69
2023-01-28T13:41:55.477Z,2.70
2023-01-28T13:44:29.761Z,2.72
2023-01-28T13:47:27.852Z,2.70
2023-01-28T13:49:59.359Z,2.66
2023-01-28T13:52:45.935Z,2.70
2023-01-28T13:55:13.088Z,2.74
2023-01-28T13:58:23.174Z,2.66
2023-01-28T14:01:20.535Z,2.66
2023-01-28T14:04:27.221Z,2.62
2023-01-28T14:07:10.954Z,2.57
2023-01-28T14:10:15.668Z,2.53
2023-01-28T14:13:13.046Z,2.46
2023-01-28T14:16:43.390Z,2.47
2023-01-28T14:19:14.533Z,2.36
2023-01-28T14:21:41.802Z,2.38
2023-01-28T14:24:18.003Z,2.33
2023-01-28T14:27:14.069Z,2.29
2023-01-28T14:30:24.289Z,2.25
2023-01-28T14:32:53.888Z,2.21
2023-01-28T14:35:34.478Z,2.23
2023-01-28T14:38:09.648Z,2.21
2023-01-28T14:40:40.986Z,2.19
2023-01-28T14:43:16.243Z,2.16
2023-01-28T14:45:49.330Z,2.16
2023-01-28T14:48:44.159Z,2.12
2023-01-28T14:52:11.964Z,2.14
2023-01-28T14:55:01.162Z,2.09
2023-01-28T14:57:52.835Z,2.02
2023-01-28T15:00:26.452Z,2.03
2023-01-28T15:02:53.548Z,2.03
2023-01-28T15:05:27.793Z,1.92
2023-01-28T15:07:56.107Z,1.90
2023-01-28T15:10:31.776Z,1.92
2023-01-28T15:13:05.174Z,1.89
2023-01-28T15:15:39.598Z,1.85
2023-01-28T15:18:22.647Z,1.84
2023-01-28T15:20:53.768Z,1.82
2023-01-28T15:23:36.010Z,1.82
2023-01-28T15:26:20.614Z,1.80
2023-01-28T15:28:49.691Z,1.77
2023-01-28T15:31:32.909Z,1.74
2023-01-28T15:34:15.488Z,1.69
2023-01-28T15:36:42.730Z,1.65
2023-01-28T15:39:23.625Z,1.58
2023-01-28T15:41:54.750Z,1.57
2023-01-28T15:44:31.133Z,1.57
2023-01-28T15:47:01.289Z,1.59
2023-01-28T15:49:34.522Z,1.57
2023-01-28T15:52:01.966Z,1.56
2023-01-28T15:54:30.620Z,1.53
2023-01-28T15:57:09.368Z,1.54
2023-01-28T15:59:36.399Z,1.54
2023-01-28T16:02:22.006Z,1.47
2023-01-28T16:05:10.664Z,1.47
2023-01-28T16:07:46.404Z,1.43
2023-01-28T16:10:28.975Z,1.42
2023-01-28T16:13:16.839Z,1.41
2023-01-28T16:15:48.891Z,1.41
2023-01-28T16:18:55.800Z,1.34
2023-01-28T16:21:32.145Z,1.35
2023-01-28T16:24:02.912Z,1.35
2023-01-28T16:26:33.511Z,1.33
2023-01-28T16:29:15.585Z,1.30
2023-01-28T16:31:42.716Z,1.26
2023-01-28T16:34:11.772Z,1.28
2023-01-28T16:36:39.587Z,1.29
2023-01-28T16:39:06.637Z,1.26
2023-01-28T16:41:41.412Z,1.25
2023-01-28T16:44:24.549Z,1.23
2023-01-28T16:46:51.523Z,1.22
2023-01-28T16:49:18.572Z,1.18
2023-01-28T16:51:45.605Z,1.18
2023-01-28T16:54:26.028Z,1.17
2023-01-28T16:57:04.213Z,1.17
2023-01-28T16:59:40.959Z,1.20
2023-01-28T17:02:12.409Z,1.14
2023-01-28T17:04:39.491Z,1.11
2023-01-28T17:07:07.224Z,1.12
2023-01-28T17:09:34.744Z,1.13
2023-01-28T17:12:05.008Z,1.10
2023-01-28T17:14:32.433Z,1.09
2023-01-28T17:16:59.371Z,1.03
2023-01-28T17:19:26.405Z,1.10
2023-01-28T17:21:53.461Z,1.04
2023-01-28T17:24:20.506Z,1.04
2023-01-28T17:26:47.626Z,1.06
2023-01-28T17:29:14.649Z,1.06
2023-01-28T17:31:44.877Z,1.00
2023-01-28T17:34:12.588Z,1.03
2023-01-28T17:36:39.675Z,1.01
2023-01-28T17:39:07.580Z,1.01
2023-01-28T17:41:34.753Z,0.95
2023-01-28T17:44:01.907Z,0.96
2023-01-28T17:46:28.979Z,0.90
2023-01-28T17:48:55.933Z,0.93
2023-01-28T17:51:23.587Z,0.85
2023-01-28T17:53:53.026Z,0.89
2023-01-28T17:56:26.808Z,0.86
2023-01-28T17:58:57.317Z,0.87
2023-01-28T18:01:26.709Z,0.85
2023-01-28T18:03:55.199Z,0.86
2023-01-28T18:06:22.569Z,0.86
2023-01-28T18:08:49.819Z,0.87
2023-01-28T18:11:22.450Z,0.82
2023-01-28T18:13:49.694Z,0.82
2023-01-28T18:16:19.499Z,0.82
2023-01-28T18:18:48.284Z,0.80
2023-01-28T18:21:51.793Z,0.76
2023-01-28T18:24:21.063Z,0.79
2023-01-28T18:26:48.151Z,0.80
2023-01-28T18:29:20.383Z,0.76
2023-01-28T18:31:52.002Z,0.72
2023-01-28T18:34:19.061Z,0.69
2023-01-28T18:36:47.015Z,0.73
2023-01-28T18:39:18.888Z,0.72
2023-01-28T18:41:46.454Z,0.73
2023-01-28T18:44:16.685Z,0.69
2023-01-28T18:46:45.178Z,0.69
2023-01-28T18:49:12.380Z,0.70
2023-01-28T18:51:39.582Z,0.71
2023-01-28T18:54:11.535Z,0.69
2023-01-28T18:56:40.696Z,0.63
2023-01-28T18:59:12.086Z,0.64
2023-01-28T19:01:40.750Z,0.68
2023-01-28T19:04:07.930Z,0.62
2023-01-28T19:06:35.623Z,0.60
2023-01-28T19:09:09.006Z,0.62
2023-01-28T19:11:38.599Z,0.61
2023-01-28T19:14:13.073Z,0.59
2023-01-28T19:16:40.373Z,0.58
2023-01-28T19:19:08.384Z,0.59
2023-01-28T19:21:35.815Z,0.58
2023-01-28T19:24:09.269Z,0.56
2023-01-28T19:26:38.265Z,0.52
2023-01-28T19:29:10.408Z,0.51
2023-01-28T19:31:39.321Z,0.53
2023-01-28T19:34:07.007Z,0.54
2023-01-28T19:36:35.635Z,0.57
2023-01-28T19:39:08.502Z,0.56
2023-01-28T19:41:36.559Z,0.51
2023-01-28T19:44:05.026Z,0.49
2023-01-28T19:46:32.705Z,0.50
2023-01-28T19:49:00.026Z,0.48
2023-01-28T19:51:26.946Z,0.41
2023-01-28T19:53:55.577Z,0.41
2023-01-28T19:56:25.630Z,0.42
2023-01-28T19:58:54.570Z,0.43
2023-01-28T20:01:27.922Z,0.38
2023-01-28T20:03:59.381Z,0.36
2023-01-28T20:06:29.632Z,0.33
2023-01-28T20:09:10.727Z,0.30
2023-01-28T20:11:37.740Z,0.30
2023-01-28T20:14:04.795Z,0.28
2023-01-28T20:16:34.581Z,0.28
2023-01-28T20:19:04.895Z,0.30
2023-01-28T20:21:33.720Z,0.29
2023-01-28T20:24:02.998Z,0.32
2023-01-28T20:26:36.308Z,0.35
2023-01-28T20:29:15.173Z,0.30
2023-01-28T20:31:42.711Z,0.31
2023-01-28T20:34:19.266Z,0.33
2023-01-28T20:36:46.471Z,0.34
2023-01-28T20:39:14.432Z,0.30
2023-01-28T20:41:41.427Z,0.27
2023-01-28T20:44:08.417Z,0.28
2023-01-28T20:46:36.798Z,0.34
2023-01-28T20:49:06.703Z,0.27
2023-01-28T20:51:38.331Z,0.31
2023-01-28T20:54:05.770Z,0.23
2023-01-28T20:56:33.079Z,0.22
2023-01-28T20:59:05.725Z,0.28
2023-01-28T21:01:35.490Z,0.29
2023-01-28T21:04:06.714Z,0.32
2023-01-28T21:06:36.507Z,0.26
2023-01-28T21:09:04.876Z,0.25
2023-01-28T21:14:02.465Z,0.29
2023-01-28T21:16:29.847Z,0.31
2023-01-28T21:18:56.888Z,0.27
2023-01-28T21:21:28.046Z,0.31
2023-01-28T21:23:57.933Z,0.31
2023-01-28T21:26:25.139Z,0.31
2023-01-28T21:28:52.189Z,0.25
2023-01-28T21:31:25.678Z,0.27
2023-01-28T21:33:56.435Z,0.26
2023-01-28T21:36:24.935Z,0.26
2023-01-28T21:38:54.117Z,0.25
2023-01-28T21:41:21.213Z,0.23
2023-01-28T21:43:53.674Z,0.25
2023-01-28T21:46:22.411Z,0.25
2023-01-28T21:48:49.632Z,0.24
2023-01-28T21:51:39.302Z,0.22
2023-01-28T21:54:12.315Z,0.19
2023-01-28T21:56:39.800Z,0.19
2023-01-28T21:59:25.181Z,0.16
2023-01-28T22:01:52.383Z,0.18
2023-01-28T22:04:19.522Z,0.19
2023-01-28T22:06:46.908Z,0.21
2023-01-28T22:09:14.404Z,0.21
2023-01-28T22:11:43.579Z,0.19
2023-01-28T22:14:11.374Z,0.17
2023-01-28T22:16:38.898Z,0.14
2023-01-28T22:19:06.021Z,0.11
2023-01-28T22:21:33.476Z,0.16
2023-01-28T22:24:00.451Z,0.11
2023-01-28T22:26:27.423Z,0.10
2023-01-28T22:28:54.402Z,0.10
2023-01-28T22:31:21.439Z,0.14
2023-01-28T22:33:48.431Z,0.12
2023-01-28T22:36:16.494Z,0.13
2023-01-28T22:38:45.398Z,0.12
2023-01-28T22:41:22.693Z,0.10
2023-01-28T22:43:51.659Z,0.11
2023-01-28T22:46:21.875Z,0.16
2023-01-28T22:48:50.181Z,0.14
2023-01-28T22:51:20.770Z,0.17
2023-01-28T22:53:49.280Z,0.14
2023-01-28T22:56:19.431Z,0.13
2023-01-28T22:58:46.992Z,0.09
2023-01-28T23:01:15.616Z,0.04
2023-01-28T23:03:47.748Z,0.02
2023-01-28T23:06:18.201Z,0.00
2023-01-28T23:08:45.225Z,-0.02
2023-01-28T23:11:22.961Z,-0.04
2023-01-28T23:14:08.439Z,-0.04
2023-01-28T23:16:54.014Z,-0.06
2023-01-28T23:19:39.947Z,-0.07
2023-01-28T23:22:34.976Z,-0.09
2023-01-28T23:25:01.905Z,-0.10
2023-01-28T23:27:28.823Z,-0.11
2023-01-28T23:29:55.746Z,-0.16
2023-01-28T23:32:23.072Z,-0.17
2023-01-28T23:34:50.310Z,-0.09
2023-01-28T23:37:17.704Z,-0.01
2023-01-28T23:39:44.743Z,-0.01
2023-01-28T23:42:21.139Z,-0.04
2023-01-28T23:44:48.605Z,-0.02
2023-01-28T23:47:15.859Z,-0.07
2023-01-28T23:49:42.866Z,-0.12
2023-01-28T23:52:09.913Z,-0.09
2023-01-28T23:54:36.944Z,-0.07
2023-01-28T23:57:05.037Z,-0.07
2023-01-28T23:59:32.243Z,-0.05
